Meloi — 3FOD — position and weather

sailwx.info

Track history (hours):
 
Tides and Currents Weather Stations Pressure Air Temp Water Temp Dewpoint Dewpoint Depression Visibility Wind Speed Wind Dir Waves Ship Positions

Meloi

Last reported at 2015-Jun-20 13:12 UTC. Time now 2015-Jul-06 04:56 UTC.
Position N 27°01' W 014°39'.
Warning: this ship's position is 15 days out of date.

Length 180 m; draft 9.1 m.

Type: Cargo ship. MMSI: 351132000.

Date/timePositionNaut miles runAvg speedWind from/ knotsBaromVisibWave heightAir tempDewpointWater temp
2015-Jun-20 13:12N 27°01' W 014°39'2011.9
2015-Jun-20 11:33N 27°16' W 014°25'1212.0
2015-Jun-20 10:33N 27°26' W 014°16'1212.5
2015-Jun-20 09:33N 27°35' W 014°08'1312.7
2015-Jun-20 08:33N 27°45' W 013°58'1312.8
2015-Jun-20 07:33N 27°55' W 013°49'1313.1
2015-Jun-20 06:33N 28°06' W 013°41'1313.0
2015-Jun-20 05:33N 28°17' W 013°32'1312.7
2015-Jun-20 04:33N 28°27' W 013°24'1313.0
2015-Jun-20 03:33N 28°38' W 013°16'9412.6
2015-Jun-19 20:06N 29°56' W 012°16'12611.7
2015-Jun-19 09:19N 31°41' W 010°55'2511.5
2015-Jun-19 07:10N 32°02' W 010°39'2011.3
2015-Jun-19 05:23N 32°16' W 010°22'5811.8
2015-Jun-19 00:29N 32°57' W 009°34'6612.4
2015-Jun-18 19:09N 33°44' W 008°38'712.5
2015-Jun-18 18:33N 33°50' W 008°32'1212.5
2015-Jun-18 17:33N 33°59' W 008°21'1212.2
2015-Jun-18 16:33N 34°08' W 008°11'1311.9
2015-Jun-18 15:28N 34°17' W 008°00'1111.8
2015-Jun-18 14:31N 34°25' W 007°51'1112.0
2015-Jun-18 13:33N 34°33' W 007°41'1212.0
2015-Jun-18 12:33N 34°41' W 007°30'1212.0
2015-Jun-18 11:33N 34°49' W 007°19'10911.9
2015-Jun-18 02:24N 35°58' W 005°35'910.8
2015-Jun-18 01:33N 36°01' W 005°25'6 6.0
2015-Jun-18 00:31N 36°07' W 005°22'0 0.2
2015-Jun-17 23:31N 36°07' W 005°22'0 0.0
2015-Jun-17 22:28N 36°07' W 005°22'0 0.1
2015-Jun-17 21:28N 36°07' W 005°22'0 0.2
2015-Jun-17 20:31N 36°07' W 005°21'0 0.0
2015-Jun-17 19:31N 36°07' W 005°21'0 0.1
2015-Jun-17 18:31N 36°07' W 005°22'0 0.1
2015-Jun-17 17:31N 36°07' W 005°22'0 0.1
2015-Jun-17 16:31N 36°07' W 005°21'0 0.2
2015-Jun-17 15:31N 36°07' W 005°21'0 0.1
2015-Jun-17 14:31N 36°07' W 005°22'0 0.1
2015-Jun-17 13:31N 36°07' W 005°22'0 0.0
2015-Jun-17 12:31N 36°07' W 005°22'0 0.1
2015-Jun-17 11:32N 36°07' W 005°21'4 3.7
2015-Jun-17 10:33N 36°06' W 005°17'3 3.3
2015-Jun-17 09:33N 36°07' W 005°13'0 0.2
2015-Jun-17 08:32N 36°07' W 005°13'1 1.5
2015-Jun-17 07:33N 36°07' W 005°11'8311.8
2015-Jun-17 00:31N 36°22' W 003°30'1211.8
2015-Jun-16 23:31N 36°24' W 003°15'1212.0
2015-Jun-16 22:33N 36°26' W 003°01'1212.1
2015-Jun-16 21:33N 36°28' W 002°46'1312.5
2015-Jun-16 20:33N 36°38' W 002°36'1211.9
2015-Jun-16 19:33N 36°48' W 002°29'2 1.5
2015-Jun-16 18:31N 36°50' W 002°29'0 0.0
2015-Jun-16 17:31N 36°50' W 002°29'0 0.0
2015-Jun-16 16:31N 36°50' W 002°29'0 0.0
2015-Jun-16 15:31N 36°50' W 002°29'0 0.0
2015-Jun-16 14:31N 36°50' W 002°29'0 0.0
2015-Jun-16 13:27N 36°50' W 002°29'0 0.0
2015-Jun-16 12:31N 36°50' W 002°29'0 0.0
2015-Jun-16 11:31N 36°50' W 002°29'0 0.0
2015-Jun-16 10:31N 36°50' W 002°29'0 0.0
2015-Jun-16 09:31N 36°50' W 002°29'0 0.0
2015-Jun-16 08:33N 36°50' W 002°29'0 0.0
2015-Jun-16 07:31N 36°50' W 002°29'0 0.0
2015-Jun-16 06:31N 36°50' W 002°29'0 0.0
2015-Jun-16 05:31N 36°50' W 002°29'0 0.0
2015-Jun-16 04:33N 36°50' W 002°29'0 0.0
2015-Jun-16 03:33N 36°50' W 002°29'0 0.0
2015-Jun-16 02:31N 36°50' W 002°29'0 0.0
2015-Jun-16 01:31N 36°50' W 002°29'0 0.0
2015-Jun-16 00:33N 36°50' W 002°29'0 0.0
2015-Jun-15 23:31N 36°50' W 002°29'0 0.0
2015-Jun-15 22:31N 36°50' W 002°29'0 0.0
2015-Jun-15 21:31N 36°50' W 002°29'0 0.0
2015-Jun-15 20:33N 36°50' W 002°29'0 0.0
2015-Jun-15 19:31N 36°50' W 002°29'0 0.0
2015-Jun-15 18:32N 36°50' W 002°29'0 0.0
2015-Jun-15 17:31N 36°50' W 002°29'0 0.0
2015-Jun-15 16:31N 36°50' W 002°29'0 0.0
2015-Jun-15 15:31N 36°50' W 002°29'0 0.0
2015-Jun-15 14:33N 36°50' W 002°29'0 0.0
2015-Jun-15 13:31N 36°50' W 002°29'0 0.0
2015-Jun-15 12:31N 36°50' W 002°29'0 0.0
2015-Jun-15 11:31N 36°50' W 002°29'0 0.0
2015-Jun-15 10:33N 36°50' W 002°29'0 0.0
2015-Jun-15 09:33N 36°50' W 002°29'0 0.0
2015-Jun-15 08:33N 36°50' W 002°29'0 0.0
2015-Jun-15 07:33N 36°50' W 002°29'0 0.0
2015-Jun-15 06:31N 36°50' W 002°29'0 0.0
2015-Jun-15 05:34N 36°50' W 002°29'1 1.1
2015-Jun-15 04:33N 36°49' W 002°29'0 0.0
2015-Jun-15 03:33N 36°49' W 002°29'0 0.1
2015-Jun-15 02:33N 36°49' W 002°29'0 0.0
2015-Jun-15 01:32N 36°49' W 002°29'0 0.1
2015-Jun-15 00:33N 36°49' W 002°29'0 0.0
2015-Jun-14 23:33N 36°49' W 002°29'0 0.0
2015-Jun-14 22:33N 36°49' W 002°29'0 0.0
2015-Jun-14 21:32N 36°49' W 002°29'0 0.0
2015-Jun-14 20:32N 36°49' W 002°29'0 0.0
2015-Jun-14 19:32N 36°49' W 002°29'0 0.0
2015-Jun-14 18:32N 36°49' W 002°29'0 0.0
2015-Jun-14 17:32N 36°49' W 002°29'0 0.0
2015-Jun-14 16:32N 36°49' W 002°29'0 0.0
2015-Jun-14 15:32N 36°49' W 002°29'0 0.0
2015-Jun-14 14:33N 36°49' W 002°29'0 0.0
2015-Jun-14 13:33N 36°49' W 002°29'0 0.0
2015-Jun-14 12:32N 36°49' W 002°29'0 0.0
2015-Jun-14 11:32N 36°49' W 002°29'0 0.0
2015-Jun-14 10:32N 36°49' W 002°29'0 0.0
2015-Jun-14 09:32N 36°49' W 002°29'0 0.0
2015-Jun-14 08:33N 36°49' W 002°29'0 0.0
2015-Jun-14 07:32N 36°49' W 002°29'0 0.0
2015-Jun-14 06:33N 36°49' W 002°29'0 0.0
2015-Jun-14 05:32N 36°49' W 002°29'0 0.0
2015-Jun-14 04:33N 36°49' W 002°29'0 0.0
2015-Jun-14 03:33N 36°49' W 002°29'0 0.0
2015-Jun-14 02:33N 36°49' W 002°29'0 0.0
2015-Jun-14 01:33N 36°49' W 002°29'0 0.0
2015-Jun-14 00:32N 36°49' W 002°29'0 0.0
2015-Jun-13 23:33N 36°49' W 002°29'0 0.0
2015-Jun-13 22:32N 36°49' W 002°29'0 0.0
2015-Jun-13 21:33N 36°49' W 002°29'0 0.0
2015-Jun-13 20:32N 36°49' W 002°29'0 0.1
2015-Jun-13 19:33N 36°49' W 002°29'0 0.0
2015-Jun-13 18:32N 36°49' W 002°29'0 0.0
2015-Jun-13 17:32N 36°49' W 002°29'0 0.0
2015-Jun-13 16:33N 36°49' W 002°29'0 0.0
2015-Jun-13 15:32N 36°49' W 002°29'0 0.0
2015-Jun-13 14:32N 36°49' W 002°29'0 0.0
2015-Jun-13 13:32N 36°49' W 002°29'0 0.0
2015-Jun-13 12:33N 36°49' W 002°29'0 0.0
2015-Jun-13 11:32N 36°49' W 002°29'0 0.0
2015-Jun-13 10:33N 36°49' W 002°29'0 0.0
2015-Jun-13 09:33N 36°49' W 002°29'0 0.0
2015-Jun-13 08:33N 36°49' W 002°29'0 0.0
2015-Jun-13 07:33N 36°49' W 002°29'0 0.0
2015-Jun-13 06:33N 36°49' W 002°29'0 0.0
2015-Jun-13 05:33N 36°49' W 002°29'0 0.0
2015-Jun-13 04:32N 36°49' W 002°29'0 0.0
2015-Jun-13 03:32N 36°49' W 002°29'0 0.0
2015-Jun-13 02:33N 36°49' W 002°29'0 0.0
2015-Jun-13 01:32N 36°49' W 002°29'0 0.0
2015-Jun-13 00:32N 36°49' W 002°29'0 0.0
2015-Jun-12 23:32N 36°49' W 002°29'0 0.0
2015-Jun-12 22:32N 36°49' W 002°29'0 0.0
2015-Jun-12 21:33N 36°49' W 002°29'0 0.0
2015-Jun-12 20:32N 36°49' W 002°29'0 0.0
2015-Jun-12 19:32N 36°49' W 002°29'0 0.0
2015-Jun-12 18:33N 36°49' W 002°29'0 0.0
2015-Jun-12 17:32N 36°49' W 002°29'0 0.0
2015-Jun-12 16:32N 36°49' W 002°29'0 0.0
2015-Jun-12 15:32N 36°49' W 002°29'0 0.0
2015-Jun-12 14:32N 36°49' W 002°29'0 0.0
2015-Jun-12 13:33N 36°49' W 002°29'0 0.0
2015-Jun-12 12:33N 36°49' W 002°29'1 0.8
2015-Jun-12 11:33N 36°48' W 002°28'5 4.9
2015-Jun-12 10:33N 36°44' W 002°25'1211.9
2015-Jun-12 09:33N 36°33' W 002°18'10 9.7
2015-Jun-12 08:32N 36°27' W 002°09'1212.6
2015-Jun-12 07:33N 36°37' W 001°59'1111.1
2015-Jun-12 06:33N 36°44' W 001°49'1211.2
2015-Jun-12 05:29N 36°52' W 001°37'1611.7
2015-Jun-12 04:08N 37°02' W 001°22'711.4
2015-Jun-12 03:31N 37°06' W 001°15'1111.1
2015-Jun-12 02:33N 37°13' W 001°05'1111.3
2015-Jun-12 01:33N 37°20' W 000°54'1211.1
2015-Jun-12 00:29N 37°28' W 000°43'1011.0
2015-Jun-11 23:33N 37°35' W 000°33'1111.1
2015-Jun-11 22:33N 37°44' W 000°26'1211.9
2015-Jun-11 21:33N 37°54' W 000°17'1212.4
2015-Jun-11 20:33N 38°04' W 000°08'7911.0
2015-Jun-11 13:21N 39°23' W 000°00'1013.0
2015-Jun-11 12:33N 39°32' W 000°07'  
Track history (hours):
 
Tides and Currents Weather Stations Pressure Air Temp Water Temp Dewpoint Dewpoint Depression Visibility Wind Speed Wind Dir Waves Ship Positions

Meloi

Last reported at 2015-Jun-20 13:12 UTC. Time now 2015-Jul-06 04:56 UTC.
Position N 27°01' W 014°39'.
Warning: this ship's position is 15 days out of date.

Length 180 m; draft 9.1 m.

Type: Cargo ship. MMSI: 351132000.

Date/timePositionNaut miles runAvg speedWind from/ knotsBaromVisibWave heightAir tempDewpointWater temp
2015-Jun-20 13:12N 27°01' W 014°39'2011.9
2015-Jun-20 11:33N 27°16' W 014°25'1212.0
2015-Jun-20 10:33N 27°26' W 014°16'1212.5
2015-Jun-20 09:33N 27°35' W 014°08'1312.7
2015-Jun-20 08:33N 27°45' W 013°58'1312.8
2015-Jun-20 07:33N 27°55' W 013°49'1313.1
2015-Jun-20 06:33N 28°06' W 013°41'1313.0
2015-Jun-20 05:33N 28°17' W 013°32'1312.7
2015-Jun-20 04:33N 28°27' W 013°24'1313.0
2015-Jun-20 03:33N 28°38' W 013°16'9412.6
2015-Jun-19 20:06N 29°56' W 012°16'12611.7
2015-Jun-19 09:19N 31°41' W 010°55'2511.5
2015-Jun-19 07:10N 32°02' W 010°39'2011.3
2015-Jun-19 05:23N 32°16' W 010°22'5811.8
2015-Jun-19 00:29N 32°57' W 009°34'6612.4
2015-Jun-18 19:09N 33°44' W 008°38'712.5
2015-Jun-18 18:33N 33°50' W 008°32'1212.5
2015-Jun-18 17:33N 33°59' W 008°21'1212.2
2015-Jun-18 16:33N 34°08' W 008°11'1311.9
2015-Jun-18 15:28N 34°17' W 008°00'1111.8
2015-Jun-18 14:31N 34°25' W 007°51'1112.0
2015-Jun-18 13:33N 34°33' W 007°41'1212.0
2015-Jun-18 12:33N 34°41' W 007°30'1212.0
2015-Jun-18 11:33N 34°49' W 007°19'10911.9
2015-Jun-18 02:24N 35°58' W 005°35'910.8
2015-Jun-18 01:33N 36°01' W 005°25'6 6.0
2015-Jun-18 00:31N 36°07' W 005°22'0 0.2
2015-Jun-17 23:31N 36°07' W 005°22'0 0.0
2015-Jun-17 22:28N 36°07' W 005°22'0 0.1
2015-Jun-17 21:28N 36°07' W 005°22'0 0.2
2015-Jun-17 20:31N 36°07' W 005°21'0 0.0
2015-Jun-17 19:31N 36°07' W 005°21'0 0.1
2015-Jun-17 18:31N 36°07' W 005°22'0 0.1
2015-Jun-17 17:31N 36°07' W 005°22'0 0.1
2015-Jun-17 16:31N 36°07' W 005°21'0 0.2
2015-Jun-17 15:31N 36°07' W 005°21'0 0.1
2015-Jun-17 14:31N 36°07' W 005°22'0 0.1
2015-Jun-17 13:31N 36°07' W 005°22'0 0.0
2015-Jun-17 12:31N 36°07' W 005°22'0 0.1
2015-Jun-17 11:32N 36°07' W 005°21'4 3.7
2015-Jun-17 10:33N 36°06' W 005°17'3 3.3
2015-Jun-17 09:33N 36°07' W 005°13'0 0.2
2015-Jun-17 08:32N 36°07' W 005°13'1 1.5
2015-Jun-17 07:33N 36°07' W 005°11'8311.8
2015-Jun-17 00:31N 36°22' W 003°30'1211.8
2015-Jun-16 23:31N 36°24' W 003°15'1212.0
2015-Jun-16 22:33N 36°26' W 003°01'1212.1
2015-Jun-16 21:33N 36°28' W 002°46'1312.5
2015-Jun-16 20:33N 36°38' W 002°36'1211.9
2015-Jun-16 19:33N 36°48' W 002°29'2 1.5
2015-Jun-16 18:31N 36°50' W 002°29'0 0.0
2015-Jun-16 17:31N 36°50' W 002°29'0 0.0
2015-Jun-16 16:31N 36°50' W 002°29'0 0.0
2015-Jun-16 15:31N 36°50' W 002°29'0 0.0
2015-Jun-16 14:31N 36°50' W 002°29'0 0.0
2015-Jun-16 13:27N 36°50' W 002°29'0 0.0
2015-Jun-16 12:31N 36°50' W 002°29'0 0.0
2015-Jun-16 11:31N 36°50' W 002°29'0 0.0
2015-Jun-16 10:31N 36°50' W 002°29'0 0.0
2015-Jun-16 09:31N 36°50' W 002°29'0 0.0
2015-Jun-16 08:33N 36°50' W 002°29'0 0.0
2015-Jun-16 07:31N 36°50' W 002°29'0 0.0
2015-Jun-16 06:31N 36°50' W 002°29'0 0.0
2015-Jun-16 05:31N 36°50' W 002°29'0 0.0
2015-Jun-16 04:33N 36°50' W 002°29'0 0.0
2015-Jun-16 03:33N 36°50' W 002°29'0 0.0
2015-Jun-16 02:31N 36°50' W 002°29'0 0.0
2015-Jun-16 01:31N 36°50' W 002°29'0 0.0
2015-Jun-16 00:33N 36°50' W 002°29'0 0.0
2015-Jun-15 23:31N 36°50' W 002°29'0 0.0
2015-Jun-15 22:31N 36°50' W 002°29'0 0.0
2015-Jun-15 21:31N 36°50' W 002°29'0 0.0
2015-Jun-15 20:33N 36°50' W 002°29'0 0.0
2015-Jun-15 19:31N 36°50' W 002°29'0 0.0
2015-Jun-15 18:32N 36°50' W 002°29'0 0.0
2015-Jun-15 17:31N 36°50' W 002°29'0 0.0
2015-Jun-15 16:31N 36°50' W 002°29'0 0.0
2015-Jun-15 15:31N 36°50' W 002°29'0 0.0
2015-Jun-15 14:33N 36°50' W 002°29'0 0.0
2015-Jun-15 13:31N 36°50' W 002°29'0 0.0
2015-Jun-15 12:31N 36°50' W 002°29'0 0.0
2015-Jun-15 11:31N 36°50' W 002°29'0 0.0
2015-Jun-15 10:33N 36°50' W 002°29'0 0.0
2015-Jun-15 09:33N 36°50' W 002°29'0 0.0
2015-Jun-15 08:33N 36°50' W 002°29'0 0.0
2015-Jun-15 07:33N 36°50' W 002°29'0 0.0
2015-Jun-15 06:31N 36°50' W 002°29'0 0.0
2015-Jun-15 05:34N 36°50' W 002°29'1 1.1
2015-Jun-15 04:33N 36°49' W 002°29'0 0.0
2015-Jun-15 03:33N 36°49' W 002°29'0 0.1
2015-Jun-15 02:33N 36°49' W 002°29'0 0.0
2015-Jun-15 01:32N 36°49' W 002°29'0 0.1
2015-Jun-15 00:33N 36°49' W 002°29'0 0.0
2015-Jun-14 23:33N 36°49' W 002°29'0 0.0
2015-Jun-14 22:33N 36°49' W 002°29'0 0.0
2015-Jun-14 21:32N 36°49' W 002°29'0 0.0
2015-Jun-14 20:32N 36°49' W 002°29'0 0.0
2015-Jun-14 19:32N 36°49' W 002°29'0 0.0
2015-Jun-14 18:32N 36°49' W 002°29'0 0.0
2015-Jun-14 17:32N 36°49' W 002°29'0 0.0
2015-Jun-14 16:32N 36°49' W 002°29'0 0.0
2015-Jun-14 15:32N 36°49' W 002°29'0 0.0
2015-Jun-14 14:33N 36°49' W 002°29'0 0.0
2015-Jun-14 13:33N 36°49' W 002°29'0 0.0
2015-Jun-14 12:32N 36°49' W 002°29'0 0.0
2015-Jun-14 11:32N 36°49' W 002°29'0 0.0
2015-Jun-14 10:32N 36°49' W 002°29'0 0.0
2015-Jun-14 09:32N 36°49' W 002°29'0 0.0
2015-Jun-14 08:33N 36°49' W 002°29'0 0.0
2015-Jun-14 07:32N 36°49' W 002°29'0 0.0
2015-Jun-14 06:33N 36°49' W 002°29'0 0.0
2015-Jun-14 05:32N 36°49' W 002°29'0 0.0
2015-Jun-14 04:33N 36°49' W 002°29'0 0.0
2015-Jun-14 03:33N 36°49' W 002°29'0 0.0
2015-Jun-14 02:33N 36°49' W 002°29'0 0.0
2015-Jun-14 01:33N 36°49' W 002°29'0 0.0
2015-Jun-14 00:32N 36°49' W 002°29'0 0.0
2015-Jun-13 23:33N 36°49' W 002°29'0 0.0
2015-Jun-13 22:32N 36°49' W 002°29'0 0.0
2015-Jun-13 21:33N 36°49' W 002°29'0 0.0
2015-Jun-13 20:32N 36°49' W 002°29'0 0.1
2015-Jun-13 19:33N 36°49' W 002°29'0 0.0
2015-Jun-13 18:32N 36°49' W 002°29'0 0.0
2015-Jun-13 17:32N 36°49' W 002°29'0 0.0
2015-Jun-13 16:33N 36°49' W 002°29'0 0.0
2015-Jun-13 15:32N 36°49' W 002°29'0 0.0
2015-Jun-13 14:32N 36°49' W 002°29'0 0.0
2015-Jun-13 13:32N 36°49' W 002°29'0 0.0
2015-Jun-13 12:33N 36°49' W 002°29'0 0.0
2015-Jun-13 11:32N 36°49' W 002°29'0 0.0
2015-Jun-13 10:33N 36°49' W 002°29'0 0.0
2015-Jun-13 09:33N 36°49' W 002°29'0 0.0
2015-Jun-13 08:33N 36°49' W 002°29'0 0.0
2015-Jun-13 07:33N 36°49' W 002°29'0 0.0
2015-Jun-13 06:33N 36°49' W 002°29'0 0.0
2015-Jun-13 05:33N 36°49' W 002°29'0 0.0
2015-Jun-13 04:32N 36°49' W 002°29'0 0.0
2015-Jun-13 03:32N 36°49' W 002°29'0 0.0
2015-Jun-13 02:33N 36°49' W 002°29'0 0.0
2015-Jun-13 01:32N 36°49' W 002°29'0 0.0
2015-Jun-13 00:32N 36°49' W 002°29'0 0.0
2015-Jun-12 23:32N 36°49' W 002°29'0 0.0
2015-Jun-12 22:32N 36°49' W 002°29'0 0.0
2015-Jun-12 21:33N 36°49' W 002°29'0 0.0
2015-Jun-12 20:32N 36°49' W 002°29'0 0.0
2015-Jun-12 19:32N 36°49' W 002°29'0 0.0
2015-Jun-12 18:33N 36°49' W 002°29'0 0.0
2015-Jun-12 17:32N 36°49' W 002°29'0 0.0
2015-Jun-12 16:32N 36°49' W 002°29'0 0.0
2015-Jun-12 15:32N 36°49' W 002°29'0 0.0
2015-Jun-12 14:32N 36°49' W 002°29'0 0.0
2015-Jun-12 13:33N 36°49' W 002°29'0 0.0
2015-Jun-12 12:33N 36°49' W 002°29'1 0.8
2015-Jun-12 11:33N 36°48' W 002°28'5 4.9
2015-Jun-12 10:33N 36°44' W 002°25'1211.9
2015-Jun-12 09:33N 36°33' W 002°18'10 9.7
2015-Jun-12 08:32N 36°27' W 002°09'1212.6
2015-Jun-12 07:33N 36°37' W 001°59'1111.1
2015-Jun-12 06:33N 36°44' W 001°49'1211.2
2015-Jun-12 05:29N 36°52' W 001°37'1611.7
2015-Jun-12 04:08N 37°02' W 001°22'711.4
2015-Jun-12 03:31N 37°06' W 001°15'1111.1
2015-Jun-12 02:33N 37°13' W 001°05'1111.3
2015-Jun-12 01:33N 37°20' W 000°54'1211.1
2015-Jun-12 00:29N 37°28' W 000°43'1011.0
2015-Jun-11 23:33N 37°35' W 000°33'1111.1
2015-Jun-11 22:33N 37°44' W 000°26'1211.9
2015-Jun-11 21:33N 37°54' W 000°17'1212.4
2015-Jun-11 20:33N 38°04' W 000°08'7911.0
2015-Jun-11 13:21N 39°23' W 000°00'1013.0
2015-Jun-11 12:33N 39°32' W 000°07'  

Dump ship's entire track history